createdAt,value
2022-10-13T00:03:40.280Z,689.00
2022-10-13T00:08:41.634Z,677.00
2022-10-13T00:13:39.776Z,679.00
2022-10-13T00:18:39.149Z,669.00
2022-10-13T00:23:38.305Z,666.00
2022-10-13T00:28:37.525Z,654.00
2022-10-13T00:33:37.683Z,664.00
2022-10-13T00:38:34.869Z,660.00
2022-10-13T00:43:35.059Z,663.00
2022-10-13T00:48:34.220Z,651.00
2022-10-13T00:53:33.437Z,634.00
2022-10-13T00:58:31.609Z,646.00
2022-10-13T01:03:32.027Z,642.00
2022-10-13T01:08:34.147Z,629.00
2022-10-13T01:13:29.465Z,635.00
2022-10-13T01:18:29.756Z,634.00
2022-10-13T01:23:30.078Z,650.00
2022-10-13T01:28:28.453Z,644.00
2022-10-13T01:33:27.570Z,646.00
2022-10-13T01:38:26.955Z,649.00
2022-10-13T01:43:26.097Z,641.00
2022-10-13T01:48:26.240Z,651.00
2022-10-13T01:53:24.557Z,645.00
2022-10-13T01:58:23.699Z,647.00
2022-10-13T02:03:22.852Z,635.00
2022-10-13T02:08:23.026Z,646.00
2022-10-13T02:13:21.176Z,642.00
2022-10-13T02:18:20.318Z,647.00
2022-10-13T02:23:20.506Z,630.00
2022-10-13T02:28:18.647Z,636.00
2022-10-13T02:33:17.777Z,643.00
2022-10-13T02:38:16.917Z,641.00
2022-10-13T02:43:15.296Z,637.00
2022-10-13T02:48:14.654Z,635.00
2022-10-13T02:53:14.838Z,630.00
2022-10-13T02:58:13.956Z,620.00
2022-10-13T03:03:14.300Z,629.00
2022-10-13T03:08:12.425Z,635.00
2022-10-13T03:13:11.616Z,622.00
2022-10-13T03:18:10.740Z,622.00
2022-10-13T03:23:10.095Z,622.00
2022-10-13T03:28:09.213Z,635.00
2022-10-13T03:33:08.566Z,644.00
2022-10-13T03:38:08.778Z,636.00
2022-10-13T03:43:07.980Z,636.00
2022-10-13T03:48:07.204Z,643.00
2022-10-13T03:53:05.415Z,642.00
2022-10-13T03:58:04.573Z,642.00
2022-10-13T04:03:03.737Z,643.00
2022-10-13T04:08:02.922Z,636.00
2022-10-13T04:13:03.130Z,640.00
2022-10-13T04:18:01.309Z,637.00
2022-10-13T04:23:00.491Z,635.00
2022-10-13T04:27:58.632Z,641.00
2022-10-13T04:32:58.826Z,640.00
2022-10-13T04:37:58.054Z,626.00
2022-10-13T04:42:58.207Z,631.00
2022-10-13T04:47:57.530Z,632.00
2022-10-13T04:52:55.818Z,632.00
2022-10-13T04:57:55.120Z,649.00
2022-10-13T05:02:54.432Z,650.00
2022-10-13T05:07:53.764Z,655.00
2022-10-13T05:12:54.885Z,646.00
2022-10-13T05:17:52.198Z,657.00
2022-10-13T05:22:51.516Z,651.00
2022-10-13T05:27:51.856Z,661.00
2022-10-13T05:32:53.728Z,657.00
2022-10-13T05:37:49.311Z,651.00
2022-10-13T05:42:48.618Z,649.00
2022-10-13T05:47:48.954Z,640.00
2022-10-13T05:52:47.101Z,651.00
2022-10-13T05:57:47.472Z,670.00
2022-10-13T06:02:46.614Z,622.00
2022-10-13T06:07:45.896Z,630.00
2022-10-13T06:12:44.211Z,644.00
2022-10-13T06:17:43.527Z,646.00
2022-10-13T06:22:42.864Z,633.00
2022-10-13T06:27:41.990Z,658.00
2022-10-13T06:32:41.277Z,635.00
2022-10-13T06:37:40.603Z,620.00
2022-10-13T06:42:39.921Z,631.00
2022-10-13T06:47:39.223Z,631.00
2022-10-13T06:52:38.574Z,616.00
2022-10-13T06:57:37.690Z,644.00
2022-10-13T07:02:37.034Z,647.00
2022-10-13T07:07:37.273Z,672.00
2022-10-13T07:12:37.402Z,660.00
2022-10-13T07:17:34.545Z,680.00
2022-10-13T07:22:33.877Z,697.00
2022-10-13T07:27:33.143Z,766.00
2022-10-13T07:32:32.447Z,669.00
2022-10-13T07:37:31.728Z,651.00
2022-10-13T07:42:30.997Z,671.00
2022-10-13T07:47:30.299Z,696.00
2022-10-13T07:52:29.583Z,693.00
2022-10-13T07:57:28.907Z,733.00
2022-10-13T08:02:28.230Z,665.00
2022-10-13T08:07:28.525Z,673.00
2022-10-13T08:12:29.637Z,691.00
2022-10-13T08:17:29.175Z,687.00
2022-10-13T08:22:28.198Z,679.00
2022-10-13T08:27:26.668Z,680.00
2022-10-13T08:32:23.691Z,705.00
2022-10-13T08:37:22.024Z,665.00
2022-10-13T08:42:22.549Z,661.00
2022-10-13T08:47:21.362Z,666.00
2022-10-13T08:52:20.983Z,677.00
2022-10-13T08:57:21.224Z,664.00
2022-10-13T09:02:19.105Z,653.00
2022-10-13T09:07:19.685Z,637.00
2022-10-13T09:12:19.985Z,648.00
2022-10-13T09:17:17.039Z,628.00
2022-10-13T09:22:19.319Z,622.00
2022-10-13T09:27:16.253Z,623.00
2022-10-13T09:32:14.622Z,623.00
2022-10-13T09:37:13.765Z,608.00
2022-10-13T09:42:12.862Z,613.00
2022-10-13T09:47:13.182Z,662.00
2022-10-13T09:52:11.502Z,618.00
2022-10-13T09:57:09.833Z,608.00
2022-10-13T10:02:13.369Z,613.00
2022-10-13T10:07:10.370Z,602.00
2022-10-13T10:12:08.668Z,619.00
2022-10-13T10:17:08.005Z,645.00
2022-10-13T10:22:07.298Z,623.00
2022-10-13T10:27:06.699Z,616.00
2022-10-13T10:32:06.790Z,614.00
2022-10-13T10:37:05.101Z,594.00
2022-10-13T10:42:04.417Z,590.00
2022-10-13T10:47:04.765Z,597.00
2022-10-13T10:52:03.902Z,584.00
2022-10-13T10:57:03.004Z,604.00
2022-10-13T11:02:01.315Z,575.00
2022-10-13T11:07:01.666Z,588.00
2022-10-13T11:12:00.796Z,578.00
2022-10-13T11:17:01.127Z,571.00
2022-10-13T11:21:59.425Z,574.00
2022-10-13T11:26:59.771Z,571.00
2022-10-13T11:31:56.882Z,569.00
2022-10-13T11:36:57.231Z,563.00
2022-10-13T11:41:56.556Z,572.00
2022-10-13T11:46:54.885Z,568.00
2022-10-13T11:51:54.215Z,576.00
2022-10-13T11:56:55.543Z,583.00
2022-10-13T12:01:52.885Z,560.00
2022-10-13T12:06:53.001Z,582.00
2022-10-13T12:11:51.314Z,568.00
2022-10-13T12:16:51.653Z,567.00
2022-10-13T12:21:50.785Z,563.00
2022-10-13T12:26:48.921Z,566.00
2022-10-13T12:31:49.267Z,565.00
2022-10-13T12:36:47.439Z,571.00
2022-10-13T12:41:46.548Z,569.00
2022-10-13T12:46:46.861Z,560.00
2022-10-13T12:51:46.170Z,556.00
2022-10-13T12:56:44.480Z,555.00
2022-10-13T13:01:43.795Z,562.00
2022-10-13T13:06:42.927Z,558.00
2022-10-13T13:11:42.274Z,559.00
2022-10-13T13:16:41.450Z,560.00
2022-10-13T13:21:40.639Z,558.00
2022-10-13T13:26:40.755Z,563.00
2022-10-13T13:31:39.093Z,567.00
2022-10-13T13:36:38.280Z,563.00
2022-10-13T13:41:37.433Z,566.00
2022-10-13T13:46:36.558Z,558.00
2022-10-13T13:51:35.893Z,555.00
2022-10-13T13:56:34.030Z,552.00
2022-10-13T14:01:35.270Z,564.00
2022-10-13T14:06:35.392Z,560.00
2022-10-13T14:11:32.738Z,558.00
2022-10-13T14:16:31.891Z,555.00
2022-10-13T14:21:31.070Z,551.00
2022-10-13T14:26:30.225Z,552.00
2022-10-13T14:31:29.338Z,546.00
2022-10-13T14:36:28.719Z,551.00
2022-10-13T14:41:29.860Z,550.00
2022-10-13T14:46:27.150Z,554.00
2022-10-13T14:51:28.527Z,549.00
2022-10-13T14:56:25.641Z,548.00
2022-10-13T15:01:24.964Z,544.00
2022-10-13T15:06:24.303Z,538.00
2022-10-13T15:11:23.612Z,545.00
2022-10-13T15:16:22.944Z,534.00
2022-10-13T15:21:22.291Z,538.00
2022-10-13T15:26:22.582Z,543.00
2022-10-13T15:31:21.891Z,537.00
2022-10-13T15:36:20.189Z,535.00
2022-10-13T15:41:19.467Z,543.00
2022-10-13T15:46:18.773Z,542.00
2022-10-13T15:51:19.071Z,540.00
2022-10-13T15:56:19.466Z,545.00
2022-10-13T16:01:16.654Z,543.00
2022-10-13T16:06:15.870Z,547.00
2022-10-13T16:11:15.039Z,548.00
2022-10-13T16:16:14.195Z,548.00
2022-10-13T16:21:18.041Z,547.00
2022-10-13T16:26:14.543Z,545.00
2022-10-13T16:31:12.887Z,544.00
2022-10-13T16:36:12.154Z,545.00
2022-10-13T16:41:10.467Z,552.00
2022-10-13T16:46:10.782Z,550.00
2022-10-13T16:51:10.080Z,549.00
2022-10-13T16:56:09.431Z,555.00
2022-10-13T17:01:07.610Z,555.00
2022-10-13T17:06:07.750Z,555.00
2022-10-13T17:11:06.342Z,560.00
2022-10-13T17:16:06.549Z,555.00
2022-10-13T17:21:05.814Z,566.00
2022-10-13T17:26:04.110Z,564.00
2022-10-13T17:31:03.351Z,557.00
2022-10-13T17:36:02.328Z,560.00
2022-10-13T17:41:02.449Z,554.00
2022-10-13T17:46:23.930Z,562.00
2022-10-13T17:50:59.953Z,569.00
2022-10-13T17:55:59.445Z,567.00
2022-10-13T18:01:12.478Z,571.00
2022-10-13T18:05:57.561Z,570.00
2022-10-13T18:11:07.560Z,558.00
2022-10-13T18:15:57.042Z,569.00
2022-10-13T18:20:55.449Z,572.00
2022-10-13T18:25:55.413Z,592.00
2022-10-13T18:30:55.964Z,592.00
2022-10-13T18:35:53.157Z,583.00
2022-10-13T18:40:52.260Z,573.00
2022-10-13T18:45:51.559Z,572.00
2022-10-13T18:50:51.763Z,569.00
2022-10-13T18:55:50.970Z,585.00
2022-10-13T19:00:49.309Z,586.00
2022-10-13T19:05:48.573Z,599.00
2022-10-13T19:10:47.632Z,581.00
2022-10-13T19:15:46.887Z,582.00
2022-10-13T19:20:46.941Z,574.00
2022-10-13T19:25:47.537Z,566.00
2022-10-13T19:30:44.569Z,564.00
2022-10-13T19:35:43.922Z,584.00
2022-10-13T19:40:43.204Z,569.00
2022-10-13T19:45:42.542Z,583.00
2022-10-13T19:50:42.671Z,629.00
2022-10-13T19:55:41.034Z,617.00
2022-10-13T20:00:40.973Z,659.00
2022-10-13T20:05:39.240Z,644.00
2022-10-13T20:10:38.206Z,591.00
2022-10-13T20:15:37.428Z,655.00
2022-10-13T20:20:37.585Z,597.00
2022-10-13T20:25:36.179Z,581.00
2022-10-13T20:30:35.098Z,581.00
2022-10-13T20:35:34.443Z,646.00
2022-10-13T20:40:32.582Z,595.00
2022-10-13T20:45:33.904Z,610.00
2022-10-13T20:50:34.256Z,606.00
2022-10-13T20:55:30.360Z,621.00
2022-10-13T21:00:30.763Z,616.00
2022-10-13T21:05:30.931Z,605.00
2022-10-13T21:10:29.265Z,732.00
2022-10-13T21:15:29.562Z,629.00
2022-10-13T21:20:28.850Z,635.00
2022-10-13T21:25:27.143Z,658.00
2022-10-13T21:30:26.440Z,635.00
2022-10-13T21:35:25.723Z,646.00
2022-10-13T21:40:26.043Z,790.00
2022-10-13T21:45:23.317Z,803.00
2022-10-13T21:50:24.587Z,803.00
2022-10-13T21:55:22.859Z,776.00
2022-10-13T22:00:23.141Z,750.00
2022-10-13T22:05:21.371Z,753.00
2022-10-13T22:10:20.560Z,699.00
2022-10-13T22:15:21.732Z,737.00
2022-10-13T22:20:19.900Z,703.00
2022-10-13T22:25:19.057Z,761.00
2022-10-13T22:30:18.231Z,775.00
2022-10-13T22:35:16.399Z,789.00
2022-10-13T22:40:16.588Z,768.00
2022-10-13T22:45:15.783Z,758.00
2022-10-13T22:50:14.960Z,749.00
2022-10-13T22:55:13.180Z,754.00
2022-10-13T23:00:13.346Z,734.00
2022-10-13T23:05:12.502Z,764.00
2022-10-13T23:10:11.677Z,795.00
2022-10-13T23:15:09.852Z,832.00
2022-10-13T23:20:09.053Z,789.00
2022-10-13T23:25:10.271Z,697.00
2022-10-13T23:30:07.440Z,668.00
2022-10-13T23:35:06.671Z,653.00
2022-10-13T23:40:05.919Z,714.00
2022-10-13T23:45:09.168Z,678.00
2022-10-13T23:50:08.333Z,635.00
2022-10-13T23:55:03.560Z,658.00
